sensor_id;sensor_type;location;lat;lon;timestamp;temperature;humidity
43047;DHT22;28672;49.358;8.780;2022-08-01T00:00:11;20.10;99.90
43047;DHT22;28672;49.358;8.780;2022-08-01T00:02:37;20.10;99.90
43047;DHT22;28672;49.358;8.780;2022-08-01T00:05:03;19.90;99.90
43047;DHT22;28672;49.358;8.780;2022-08-01T00:07:31;19.90;99.90
43047;DHT22;28672;49.358;8.780;2022-08-01T00:09:57;19.90;99.90
43047;DHT22;28672;49.358;8.780;2022-08-01T00:12:23;19.70;99.90
43047;DHT22;28672;49.358;8.780;2022-08-01T00:14:48;19.60;99.90
43047;DHT22;28672;49.358;8.780;2022-08-01T00:17:14;19.50;99.90
43047;DHT22;28672;49.358;8.780;2022-08-01T00:19:39;19.50;99.90
43047;DHT22;28672;49.358;8.780;2022-08-01T00:22:05;19.40;99.90
43047;DHT22;28672;49.358;8.780;2022-08-01T00:24:30;19.40;99.90
43047;DHT22;28672;49.358;8.780;2022-08-01T00:26:56;19.30;99.90
43047;DHT22;28672;49.358;8.780;2022-08-01T00:29:21;19.30;99.90
43047;DHT22;28672;49.358;8.780;2022-08-01T00:31:47;19.20;99.90
43047;DHT22;28672;49.358;8.780;2022-08-01T00:34:12;19.20;99.90
43047;DHT22;28672;49.358;8.780;2022-08-01T00:36:38;19.10;99.90
43047;DHT22;28672;49.358;8.780;2022-08-01T00:39:04;19.10;99.90
43047;DHT22;28672;49.358;8.780;2022-08-01T00:41:29;19.00;99.90
43047;DHT22;28672;49.358;8.780;2022-08-01T00:43:55;19.00;99.90
43047;DHT22;28672;49.358;8.780;2022-08-01T00:46:20;19.00;99.90
43047;DHT22;28672;49.358;8.780;2022-08-01T00:48:46;18.90;99.90
43047;DHT22;28672;49.358;8.780;2022-08-01T00:51:12;18.90;99.90
43047;DHT22;28672;49.358;8.780;2022-08-01T00:53:39;18.80;99.90
43047;DHT22;28672;49.358;8.780;2022-08-01T00:56:05;18.70;99.90
43047;DHT22;28672;49.358;8.780;2022-08-01T00:58:33;18.70;99.90
43047;DHT22;28672;49.358;8.780;2022-08-01T01:00:59;18.70;99.90
43047;DHT22;28672;49.358;8.780;2022-08-01T01:03:25;18.60;99.90
43047;DHT22;28672;49.358;8.780;2022-08-01T01:06:10;18.60;99.90
43047;DHT22;28672;49.358;8.780;2022-08-01T01:09:01;18.60;99.90
43047;DHT22;28672;49.358;8.780;2022-08-01T01:14:21;18.60;99.90
43047;DHT22;28672;49.358;8.780;2022-08-01T01:16:49;18.50;99.90
43047;DHT22;28672;49.358;8.780;2022-08-01T01:19:20;18.40;99.90
43047;DHT22;28672;49.358;8.780;2022-08-01T01:22:11;18.40;99.90
43047;DHT22;28672;49.358;8.780;2022-08-01T01:25:02;18.40;99.90
43047;DHT22;28672;49.358;8.780;2022-08-01T01:27:47;18.30;99.90
43047;DHT22;28672;49.358;8.780;2022-08-01T01:30:15;18.30;99.90
43047;DHT22;28672;49.358;8.780;2022-08-01T01:32:48;18.30;99.90
43047;DHT22;28672;49.358;8.780;2022-08-01T01:35:32;18.20;99.90
43047;DHT22;28672;49.358;8.780;2022-08-01T01:38:27;18.30;99.90
43047;DHT22;28672;49.358;8.780;2022-08-01T01:40:55;18.20;99.90
43047;DHT22;28672;49.358;8.780;2022-08-01T01:43:22;18.30;99.90
43047;DHT22;28672;49.358;8.780;2022-08-01T01:45:49;18.20;99.90
43047;DHT22;28672;49.358;8.780;2022-08-01T01:48:18;18.20;99.90
43047;DHT22;28672;49.358;8.780;2022-08-01T01:50:48;18.10;99.90
43047;DHT22;28672;49.358;8.780;2022-08-01T01:53:16;18.10;99.90
43047;DHT22;28672;49.358;8.780;2022-08-01T01:55:45;18.00;99.90
43047;DHT22;28672;49.358;8.780;2022-08-01T01:58:13;18.00;99.90
43047;DHT22;28672;49.358;8.780;2022-08-01T02:00:41;17.90;99.90
43047;DHT22;28672;49.358;8.780;2022-08-01T02:03:11;17.90;99.90
43047;DHT22;28672;49.358;8.780;2022-08-01T02:05:37;17.90;99.90
43047;DHT22;28672;49.358;8.780;2022-08-01T02:08:04;17.80;99.90
43047;DHT22;28672;49.358;8.780;2022-08-01T02:10:32;17.80;99.90
43047;DHT22;28672;49.358;8.780;2022-08-01T02:12:59;17.70;99.90
43047;DHT22;28672;49.358;8.780;2022-08-01T02:15:27;17.70;99.90
43047;DHT22;28672;49.358;8.780;2022-08-01T02:17:56;17.70;99.90
43047;DHT22;28672;49.358;8.780;2022-08-01T02:20:22;17.80;99.90
43047;DHT22;28672;49.358;8.780;2022-08-01T02:23:01;17.70;99.90
43047;DHT22;28672;49.358;8.780;2022-08-01T02:25:38;17.70;99.90
43047;DHT22;28672;49.358;8.780;2022-08-01T02:28:07;17.70;99.90
43047;DHT22;28672;49.358;8.780;2022-08-01T02:30:37;17.70;99.90
43047;DHT22;28672;49.358;8.780;2022-08-01T02:33:20;17.70;99.90
43047;DHT22;28672;49.358;8.780;2022-08-01T02:35:50;17.70;99.90
43047;DHT22;28672;49.358;8.780;2022-08-01T02:38:18;17.70;99.90
43047;DHT22;28672;49.358;8.780;2022-08-01T02:40:47;17.70;99.90
43047;DHT22;28672;49.358;8.780;2022-08-01T02:43:17;17.70;99.90
43047;DHT22;28672;49.358;8.780;2022-08-01T02:45:45;17.70;99.90
43047;DHT22;28672;49.358;8.780;2022-08-01T02:48:13;17.70;99.90
43047;DHT22;28672;49.358;8.780;2022-08-01T02:50:42;17.60;99.90
43047;DHT22;28672;49.358;8.780;2022-08-01T02:53:09;17.60;99.90
43047;DHT22;28672;49.358;8.780;2022-08-01T02:55:39;17.60;99.90
43047;DHT22;28672;49.358;8.780;2022-08-01T02:58:07;17.60;99.90
43047;DHT22;28672;49.358;8.780;2022-08-01T03:00:35;17.60;99.90
43047;DHT22;28672;49.358;8.780;2022-08-01T03:03:01;17.60;99.90
43047;DHT22;28672;49.358;8.780;2022-08-01T03:05:28;17.50;99.90
43047;DHT22;28672;49.358;8.780;2022-08-01T03:07:56;17.50;99.90
43047;DHT22;28672;49.358;8.780;2022-08-01T03:10:24;17.50;99.90
43047;DHT22;28672;49.358;8.780;2022-08-01T03:12:52;17.50;99.90
43047;DHT22;28672;49.358;8.780;2022-08-01T03:15:19;17.50;99.90
43047;DHT22;28672;49.358;8.780;2022-08-01T03:17:46;17.40;99.90
43047;DHT22;28672;49.358;8.780;2022-08-01T03:20:15;17.40;99.90
43047;DHT22;28672;49.358;8.780;2022-08-01T03:22:43;17.40;99.90
43047;DHT22;28672;49.358;8.780;2022-08-01T03:25:11;17.40;99.90
43047;DHT22;28672;49.358;8.780;2022-08-01T03:27:40;17.40;99.90
43047;DHT22;28672;49.358;8.780;2022-08-01T03:30:07;17.30;99.90
43047;DHT22;28672;49.358;8.780;2022-08-01T03:32:33;17.40;99.90
43047;DHT22;28672;49.358;8.780;2022-08-01T03:34:59;17.30;99.90
43047;DHT22;28672;49.358;8.780;2022-08-01T03:37:30;17.40;99.90
43047;DHT22;28672;49.358;8.780;2022-08-01T03:40:05;17.30;99.90
43047;DHT22;28672;49.358;8.780;2022-08-01T03:42:37;17.30;99.90
43047;DHT22;28672;49.358;8.780;2022-08-01T03:45:07;17.30;99.90
43047;DHT22;28672;49.358;8.780;2022-08-01T03:47:36;17.20;99.90
43047;DHT22;28672;49.358;8.780;2022-08-01T03:50:05;17.20;99.90
43047;DHT22;28672;49.358;8.780;2022-08-01T03:52:33;17.20;99.90
43047;DHT22;28672;49.358;8.780;2022-08-01T03:55:03;17.10;99.90
43047;DHT22;28672;49.358;8.780;2022-08-01T03:57:30;17.10;99.90
43047;DHT22;28672;49.358;8.780;2022-08-01T04:00:00;17.10;99.90
43047;DHT22;28672;49.358;8.780;2022-08-01T04:02:26;17.10;99.90
43047;DHT22;28672;49.358;8.780;2022-08-01T04:04:53;17.10;99.90
43047;DHT22;28672;49.358;8.780;2022-08-01T04:07:27;17.10;99.90
43047;DHT22;28672;49.358;8.780;2022-08-01T04:09:52;17.10;99.90
43047;DHT22;28672;49.358;8.780;2022-08-01T04:12:18;17.10;99.90
43047;DHT22;28672;49.358;8.780;2022-08-01T04:14:44;17.10;99.90
43047;DHT22;28672;49.358;8.780;2022-08-01T04:17:10;17.10;99.90
43047;DHT22;28672;49.358;8.780;2022-08-01T04:19:35;17.10;99.90
43047;DHT22;28672;49.358;8.780;2022-08-01T04:22:01;17.10;99.90
43047;DHT22;28672;49.358;8.780;2022-08-01T04:24:28;17.10;99.90
43047;DHT22;28672;49.358;8.780;2022-08-01T04:26:57;17.20;99.90
43047;DHT22;28672;49.358;8.780;2022-08-01T04:29:23;17.10;99.90
43047;DHT22;28672;49.358;8.780;2022-08-01T04:31:53;17.10;99.90
43047;DHT22;28672;49.358;8.780;2022-08-01T04:34:21;17.20;99.90
43047;DHT22;28672;49.358;8.780;2022-08-01T04:36:48;17.10;99.90
43047;DHT22;28672;49.358;8.780;2022-08-01T04:39:16;17.10;99.90
43047;DHT22;28672;49.358;8.780;2022-08-01T04:41:44;17.20;99.90
43047;DHT22;28672;49.358;8.780;2022-08-01T04:44:09;17.20;99.90
43047;DHT22;28672;49.358;8.780;2022-08-01T04:46:35;17.20;99.90
43047;DHT22;28672;49.358;8.780;2022-08-01T04:49:02;17.30;99.90
43047;DHT22;28672;49.358;8.780;2022-08-01T04:51:30;17.30;99.90
43047;DHT22;28672;49.358;8.780;2022-08-01T04:53:55;17.40;99.90
43047;DHT22;28672;49.358;8.780;2022-08-01T04:56:23;17.50;99.90
43047;DHT22;28672;49.358;8.780;2022-08-01T04:58:48;17.60;99.90
43047;DHT22;28672;49.358;8.780;2022-08-01T05:01:34;17.70;99.90
43047;DHT22;28672;49.358;8.780;2022-08-01T05:03:59;17.70;99.90
43047;DHT22;28672;49.358;8.780;2022-08-01T05:06:25;17.80;99.90
43047;DHT22;28672;49.358;8.780;2022-08-01T05:08:50;17.90;99.90
43047;DHT22;28672;49.358;8.780;2022-08-01T05:11:16;17.90;99.90
43047;DHT22;28672;49.358;8.780;2022-08-01T05:13:41;17.90;99.90
43047;DHT22;28672;49.358;8.780;2022-08-01T05:16:07;18.00;99.90
43047;DHT22;28672;49.358;8.780;2022-08-01T05:18:32;18.10;99.90
43047;DHT22;28672;49.358;8.780;2022-08-01T05:20:58;18.20;99.90
43047;DHT22;28672;49.358;8.780;2022-08-01T05:23:23;18.30;99.90
43047;DHT22;28672;49.358;8.780;2022-08-01T05:25:49;18.30;99.90
43047;DHT22;28672;49.358;8.780;2022-08-01T05:28:15;18.30;99.90
43047;DHT22;28672;49.358;8.780;2022-08-01T05:30:40;18.40;99.90
43047;DHT22;28672;49.358;8.780;2022-08-01T05:33:06;18.40;99.90
43047;DHT22;28672;49.358;8.780;2022-08-01T05:35:31;18.50;99.90
43047;DHT22;28672;49.358;8.780;2022-08-01T05:37:57;18.60;99.90
43047;DHT22;28672;49.358;8.780;2022-08-01T05:40:22;18.60;99.90
43047;DHT22;28672;49.358;8.780;2022-08-01T05:42:48;18.50;99.90
43047;DHT22;28672;49.358;8.780;2022-08-01T05:45:13;18.60;99.90
43047;DHT22;28672;49.358;8.780;2022-08-01T05:47:39;18.60;99.90
43047;DHT22;28672;49.358;8.780;2022-08-01T05:50:05;18.70;99.90
43047;DHT22;28672;49.358;8.780;2022-08-01T05:52:30;18.60;99.90
43047;DHT22;28672;49.358;8.780;2022-08-01T05:54:56;18.80;99.90
43047;DHT22;28672;49.358;8.780;2022-08-01T05:57:21;18.80;99.90
43047;DHT22;28672;49.358;8.780;2022-08-01T05:59:47;18.90;99.90
43047;DHT22;28672;49.358;8.780;2022-08-01T06:02:12;18.90;99.90
43047;DHT22;28672;49.358;8.780;2022-08-01T06:04:38;19.00;99.90
43047;DHT22;28672;49.358;8.780;2022-08-01T06:07:03;19.20;99.90
43047;DHT22;28672;49.358;8.780;2022-08-01T06:09:29;19.30;99.90
43047;DHT22;28672;49.358;8.780;2022-08-01T06:11:56;19.50;99.90
43047;DHT22;28672;49.358;8.780;2022-08-01T06:14:21;19.60;99.90
43047;DHT22;28672;49.358;8.780;2022-08-01T06:16:47;20.10;99.90
43047;DHT22;28672;49.358;8.780;2022-08-01T06:19:12;21.20;99.90
43047;DHT22;28672;49.358;8.780;2022-08-01T06:21:38;22.00;99.90
43047;DHT22;28672;49.358;8.780;2022-08-01T06:24:04;22.50;99.90
43047;DHT22;28672;49.358;8.780;2022-08-01T06:26:29;23.20;99.90
43047;DHT22;28672;49.358;8.780;2022-08-01T06:28:56;23.50;99.90
43047;DHT22;28672;49.358;8.780;2022-08-01T06:31:22;23.10;99.90
43047;DHT22;28672;49.358;8.780;2022-08-01T06:33:47;22.90;99.90
43047;DHT22;28672;49.358;8.780;2022-08-01T06:36:13;23.00;99.90
43047;DHT22;28672;49.358;8.780;2022-08-01T06:38:38;23.10;99.90
43047;DHT22;28672;49.358;8.780;2022-08-01T06:41:04;23.10;99.90
43047;DHT22;28672;49.358;8.780;2022-08-01T06:43:29;23.30;99.90
43047;DHT22;28672;49.358;8.780;2022-08-01T06:45:55;23.20;99.90
43047;DHT22;28672;49.358;8.780;2022-08-01T06:48:21;23.80;99.90
43047;DHT22;28672;49.358;8.780;2022-08-01T06:50:47;24.00;99.90
43047;DHT22;28672;49.358;8.780;2022-08-01T06:53:13;24.20;99.90
43047;DHT22;28672;49.358;8.780;2022-08-01T06:55:38;24.20;99.90
43047;DHT22;28672;49.358;8.780;2022-08-01T06:58:04;23.80;99.90
43047;DHT22;28672;49.358;8.780;2022-08-01T07:00:29;24.00;99.90
43047;DHT22;28672;49.358;8.780;2022-08-01T07:02:58;24.00;99.90
43047;DHT22;28672;49.358;8.780;2022-08-01T07:05:25;23.80;99.90
43047;DHT22;28672;49.358;8.780;2022-08-01T07:07:50;23.80;99.90
43047;DHT22;28672;49.358;8.780;2022-08-01T07:10:16;24.00;99.90
43047;DHT22;28672;49.358;8.780;2022-08-01T07:12:42;24.00;99.90
43047;DHT22;28672;49.358;8.780;2022-08-01T07:15:11;24.00;99.90
43047;DHT22;28672;49.358;8.780;2022-08-01T07:17:38;23.90;99.90
43047;DHT22;28672;49.358;8.780;2022-08-01T07:20:05;24.10;99.90
43047;DHT22;28672;49.358;8.780;2022-08-01T07:22:30;24.20;99.90
43047;DHT22;28672;49.358;8.780;2022-08-01T07:24:56;24.60;99.90
43047;DHT22;28672;49.358;8.780;2022-08-01T07:27:21;24.50;99.90
43047;DHT22;28672;49.358;8.780;2022-08-01T07:29:47;24.60;99.90
43047;DHT22;28672;49.358;8.780;2022-08-01T07:32:12;24.70;99.90
43047;DHT22;28672;49.358;8.780;2022-08-01T07:34:38;24.90;99.90
43047;DHT22;28672;49.358;8.780;2022-08-01T07:37:03;24.70;99.90
43047;DHT22;28672;49.358;8.780;2022-08-01T07:39:29;25.10;99.90
43047;DHT22;28672;49.358;8.780;2022-08-01T07:41:54;25.30;99.90
43047;DHT22;28672;49.358;8.780;2022-08-01T07:44:20;25.50;99.90
43047;DHT22;28672;49.358;8.780;2022-08-01T07:46:45;25.80;99.90
43047;DHT22;28672;49.358;8.780;2022-08-01T07:49:11;26.20;99.90
43047;DHT22;28672;49.358;8.780;2022-08-01T07:51:36;26.60;99.90
43047;DHT22;28672;49.358;8.780;2022-08-01T07:54:03;26.50;99.90
43047;DHT22;28672;49.358;8.780;2022-08-01T07:56:28;26.40;99.90
43047;DHT22;28672;49.358;8.780;2022-08-01T07:58:54;26.40;99.90
43047;DHT22;28672;49.358;8.780;2022-08-01T08:01:19;26.60;99.90
43047;DHT22;28672;49.358;8.780;2022-08-01T08:03:46;26.50;99.90
43047;DHT22;28672;49.358;8.780;2022-08-01T08:06:11;26.40;99.90
43047;DHT22;28672;49.358;8.780;2022-08-01T08:08:37;26.50;99.90
43047;DHT22;28672;49.358;8.780;2022-08-01T08:11:02;26.50;99.90
43047;DHT22;28672;49.358;8.780;2022-08-01T08:13:28;26.80;99.90
43047;DHT22;28672;49.358;8.780;2022-08-01T08:15:53;26.80;99.90
43047;DHT22;28672;49.358;8.780;2022-08-01T08:18:19;26.90;99.90
43047;DHT22;28672;49.358;8.780;2022-08-01T08:20:44;27.00;99.90
43047;DHT22;28672;49.358;8.780;2022-08-01T08:23:10;26.80;99.90
43047;DHT22;28672;49.358;8.780;2022-08-01T08:25:55;26.90;99.90
43047;DHT22;28672;49.358;8.780;2022-08-01T08:28:20;26.60;99.90
43047;DHT22;28672;49.358;8.780;2022-08-01T08:30:46;26.70;99.90
43047;DHT22;28672;49.358;8.780;2022-08-01T08:33:12;26.90;99.90
43047;DHT22;28672;49.358;8.780;2022-08-01T08:35:39;27.00;99.90
43047;DHT22;28672;49.358;8.780;2022-08-01T08:38:06;26.80;99.90
43047;DHT22;28672;49.358;8.780;2022-08-01T08:40:35;27.00;99.90
43047;DHT22;28672;49.358;8.780;2022-08-01T08:43:03;27.40;99.90
43047;DHT22;28672;49.358;8.780;2022-08-01T08:45:29;27.80;99.90
43047;DHT22;28672;49.358;8.780;2022-08-01T08:47:56;27.90;99.90
43047;DHT22;28672;49.358;8.780;2022-08-01T08:50:22;28.50;99.90
43047;DHT22;28672;49.358;8.780;2022-08-01T08:52:48;28.80;99.90
43047;DHT22;28672;49.358;8.780;2022-08-01T08:55:16;28.70;99.90
43047;DHT22;28672;49.358;8.780;2022-08-01T08:57:43;28.70;99.90
43047;DHT22;28672;49.358;8.780;2022-08-01T09:00:10;28.20;99.90
43047;DHT22;28672;49.358;8.780;2022-08-01T09:02:43;27.90;99.90
43047;DHT22;28672;49.358;8.780;2022-08-01T09:05:09;28.20;99.90
43047;DHT22;28672;49.358;8.780;2022-08-01T09:07:35;28.30;99.90
43047;DHT22;28672;49.358;8.780;2022-08-01T09:10:01;28.40;99.90
43047;DHT22;28672;49.358;8.780;2022-08-01T09:12:26;28.00;99.90
43047;DHT22;28672;49.358;8.780;2022-08-01T09:14:52;28.10;99.90
43047;DHT22;28672;49.358;8.780;2022-08-01T09:17:19;27.90;99.90
43047;DHT22;28672;49.358;8.780;2022-08-01T09:19:55;28.00;99.90
43047;DHT22;28672;49.358;8.780;2022-08-01T09:22:23;28.00;99.90
43047;DHT22;28672;49.358;8.780;2022-08-01T09:27:30;27.90;99.90
43047;DHT22;28672;49.358;8.780;2022-08-01T09:30:10;27.60;99.90
43047;DHT22;28672;49.358;8.780;2022-08-01T09:32:36;27.90;99.90
43047;DHT22;28672;49.358;8.780;2022-08-01T09:35:22;28.40;99.90
43047;DHT22;28672;49.358;8.780;2022-08-01T09:37:48;28.20;99.90
43047;DHT22;28672;49.358;8.780;2022-08-01T09:40:13;28.60;99.90
43047;DHT22;28672;49.358;8.780;2022-08-01T09:42:39;28.40;99.90
43047;DHT22;28672;49.358;8.780;2022-08-01T09:45:05;28.40;99.90
43047;DHT22;28672;49.358;8.780;2022-08-01T09:47:40;28.40;99.90
43047;DHT22;28672;49.358;8.780;2022-08-01T09:50:06;28.70;99.90
43047;DHT22;28672;49.358;8.780;2022-08-01T09:52:32;28.90;99.90
43047;DHT22;28672;49.358;8.780;2022-08-01T09:55:03;28.50;99.90
43047;DHT22;28672;49.358;8.780;2022-08-01T09:57:29;28.50;99.90
43047;DHT22;28672;49.358;8.780;2022-08-01T09:59:57;28.80;99.90
43047;DHT22;28672;49.358;8.780;2022-08-01T10:02:37;28.90;99.90
43047;DHT22;28672;49.358;8.780;2022-08-01T10:05:06;28.50;99.90
43047;DHT22;28672;49.358;8.780;2022-08-01T10:07:32;28.30;99.90
43047;DHT22;28672;49.358;8.780;2022-08-01T10:10:12;28.40;99.90
43047;DHT22;28672;49.358;8.780;2022-08-01T10:12:39;28.50;99.90
43047;DHT22;28672;49.358;8.780;2022-08-01T10:15:05;28.80;99.90
43047;DHT22;28672;49.358;8.780;2022-08-01T10:17:33;28.60;99.90
43047;DHT22;28672;49.358;8.780;2022-08-01T10:20:00;29.20;99.90
43047;DHT22;28672;49.358;8.780;2022-08-01T10:22:27;29.50;99.90
43047;DHT22;28672;49.358;8.780;2022-08-01T10:24:55;29.40;99.90
43047;DHT22;28672;49.358;8.780;2022-08-01T10:27:23;29.50;99.90
43047;DHT22;28672;49.358;8.780;2022-08-01T10:29:59;29.40;99.90
43047;DHT22;28672;49.358;8.780;2022-08-01T10:32:34;29.20;99.90
43047;DHT22;28672;49.358;8.780;2022-08-01T10:35:02;29.10;99.90
43047;DHT22;28672;49.358;8.780;2022-08-01T10:37:28;29.00;99.90
43047;DHT22;28672;49.358;8.780;2022-08-01T10:39:54;29.10;99.90
43047;DHT22;28672;49.358;8.780;2022-08-01T10:42:23;29.20;99.90
43047;DHT22;28672;49.358;8.780;2022-08-01T10:44:49;29.00;99.90
43047;DHT22;28672;49.358;8.780;2022-08-01T10:47:20;29.00;99.90
43047;DHT22;28672;49.358;8.780;2022-08-01T10:50:07;29.00;99.90
43047;DHT22;28672;49.358;8.780;2022-08-01T10:52:34;28.80;99.90
43047;DHT22;28672;49.358;8.780;2022-08-01T10:55:04;29.20;99.90
43047;DHT22;28672;49.358;8.780;2022-08-01T10:57:47;29.20;99.90
43047;DHT22;28672;49.358;8.780;2022-08-01T11:00:22;28.90;99.90
43047;DHT22;28672;49.358;8.780;2022-08-01T11:03:02;28.90;99.90
43047;DHT22;28672;49.358;8.780;2022-08-01T11:05:32;29.00;99.90
43047;DHT22;28672;49.358;8.780;2022-08-01T11:08:02;29.00;99.90
43047;DHT22;28672;49.358;8.780;2022-08-01T11:10:34;28.90;99.90
43047;DHT22;28672;49.358;8.780;2022-08-01T11:13:02;28.70;99.90
43047;DHT22;28672;49.358;8.780;2022-08-01T11:15:30;28.50;99.90
43047;DHT22;28672;49.358;8.780;2022-08-01T11:17:57;28.50;99.90
43047;DHT22;28672;49.358;8.780;2022-08-01T11:20:24;28.60;99.90
43047;DHT22;28672;49.358;8.780;2022-08-01T11:25:26;28.90;99.90
43047;DHT22;28672;49.358;8.780;2022-08-01T11:30:47;28.80;99.90
43047;DHT22;28672;49.358;8.780;2022-08-01T11:33:14;28.40;99.90
43047;DHT22;28672;49.358;8.780;2022-08-01T11:39:12;28.60;99.90
43047;DHT22;28672;49.358;8.780;2022-08-01T11:41:32;28.60;99.90
43047;DHT22;28672;49.358;8.780;2022-08-01T11:44:23;28.70;99.90
43047;DHT22;28672;49.358;8.780;2022-08-01T11:47:03;28.70;99.90
43047;DHT22;28672;49.358;8.780;2022-08-01T11:54:57;28.70;99.90
43047;DHT22;28672;49.358;8.780;2022-08-01T11:57:31;28.80;99.90
43047;DHT22;28672;49.358;8.780;2022-08-01T12:00:03;28.90;99.90
43047;DHT22;28672;49.358;8.780;2022-08-01T12:02:31;29.10;99.90
43047;DHT22;28672;49.358;8.780;2022-08-01T12:04:59;29.10;99.90
43047;DHT22;28672;49.358;8.780;2022-08-01T12:07:28;29.10;99.90
43047;DHT22;28672;49.358;8.780;2022-08-01T12:10:18;29.00;99.90
43047;DHT22;28672;49.358;8.780;2022-08-01T12:13:09;29.20;99.90
43047;DHT22;28672;49.358;8.780;2022-08-01T12:15:36;29.50;99.90
43047;DHT22;28672;49.358;8.780;2022-08-01T12:18:04;29.80;99.90
43047;DHT22;28672;49.358;8.780;2022-08-01T12:20:32;30.30;99.90
43047;DHT22;28672;49.358;8.780;2022-08-01T12:23:03;30.20;99.90
43047;DHT22;28672;49.358;8.780;2022-08-01T12:25:31;30.10;99.90
43047;DHT22;28672;49.358;8.780;2022-08-01T12:28:08;30.20;99.90
43047;DHT22;28672;49.358;8.780;2022-08-01T12:30:36;30.10;99.90
43047;DHT22;28672;49.358;8.780;2022-08-01T12:33:07;30.20;99.90
43047;DHT22;28672;49.358;8.780;2022-08-01T12:35:34;30.30;99.90
43047;DHT22;28672;49.358;8.780;2022-08-01T12:38:05;30.30;99.90
43047;DHT22;28672;49.358;8.780;2022-08-01T12:40:35;30.60;99.90
43047;DHT22;28672;49.358;8.780;2022-08-01T12:43:06;31.30;99.90
43047;DHT22;28672;49.358;8.780;2022-08-01T12:45:38;31.50;99.90
43047;DHT22;28672;49.358;8.780;2022-08-01T12:48:10;31.10;99.90
43047;DHT22;28672;49.358;8.780;2022-08-01T12:50:38;31.10;99.90
43047;DHT22;28672;49.358;8.780;2022-08-01T12:53:04;31.50;99.90
43047;DHT22;28672;49.358;8.780;2022-08-01T12:55:30;31.90;99.90
43047;DHT22;28672;49.358;8.780;2022-08-01T12:58:07;31.70;99.50
43047;DHT22;28672;49.358;8.780;2022-08-01T13:00:34;31.60;99.90
43047;DHT22;28672;49.358;8.780;2022-08-01T13:03:19;31.90;99.90
43047;DHT22;28672;49.358;8.780;2022-08-01T13:08:24;31.70;99.70
43047;DHT22;28672;49.358;8.780;2022-08-01T13:10:55;31.30;99.90
43047;DHT22;28672;49.358;8.780;2022-08-01T13:13:38;31.20;99.70
43047;DHT22;28672;49.358;8.780;2022-08-01T13:16:06;30.80;99.90
43047;DHT22;28672;49.358;8.780;2022-08-01T13:18:33;30.80;99.00
43047;DHT22;28672;49.358;8.780;2022-08-01T13:23:40;30.60;99.90
43047;DHT22;28672;49.358;8.780;2022-08-01T13:26:06;30.60;99.50
43047;DHT22;28672;49.358;8.780;2022-08-01T13:28:32;30.70;99.00
43047;DHT22;28672;49.358;8.780;2022-08-01T13:30:58;30.50;99.00
43047;DHT22;28672;49.358;8.780;2022-08-01T13:33:26;30.50;99.00
43047;DHT22;28672;49.358;8.780;2022-08-01T13:35:54;30.60;98.30
43047;DHT22;28672;49.358;8.780;2022-08-01T13:38:20;30.70;98.50
43047;DHT22;28672;49.358;8.780;2022-08-01T13:41:06;30.70;97.90
43047;DHT22;28672;49.358;8.780;2022-08-01T13:43:32;30.50;97.90
43047;DHT22;28672;49.358;8.780;2022-08-01T13:45:58;30.60;98.60
43047;DHT22;28672;49.358;8.780;2022-08-01T13:48:23;31.00;98.90
43047;DHT22;28672;49.358;8.780;2022-08-01T13:50:49;31.20;99.10
43047;DHT22;28672;49.358;8.780;2022-08-01T13:53:15;31.10;99.20
43047;DHT22;28672;49.358;8.780;2022-08-01T13:55:42;31.20;98.20
43047;DHT22;28672;49.358;8.780;2022-08-01T13:58:08;31.50;98.90
43047;DHT22;28672;49.358;8.780;2022-08-01T14:00:33;31.60;98.10
43047;DHT22;28672;49.358;8.780;2022-08-01T14:02:59;31.10;98.00
43047;DHT22;28672;49.358;8.780;2022-08-01T14:05:24;30.80;98.70
43047;DHT22;28672;49.358;8.780;2022-08-01T14:07:50;30.90;98.70
43047;DHT22;28672;49.358;8.780;2022-08-01T14:10:15;30.60;99.60
43047;DHT22;28672;49.358;8.780;2022-08-01T14:12:41;30.50;99.70
43047;DHT22;28672;49.358;8.780;2022-08-01T14:15:07;30.40;99.90
43047;DHT22;28672;49.358;8.780;2022-08-01T14:17:32;30.40;99.90
43047;DHT22;28672;49.358;8.780;2022-08-01T14:19:58;30.30;99.90
43047;DHT22;28672;49.358;8.780;2022-08-01T14:22:24;30.50;99.90
43047;DHT22;28672;49.358;8.780;2022-08-01T14:24:50;30.30;99.70
43047;DHT22;28672;49.358;8.780;2022-08-01T14:27:15;30.50;99.90
43047;DHT22;28672;49.358;8.780;2022-08-01T14:29:41;30.70;99.30
43047;DHT22;28672;49.358;8.780;2022-08-01T14:32:06;30.70;99.30
43047;DHT22;28672;49.358;8.780;2022-08-01T14:34:32;30.70;98.80
43047;DHT22;28672;49.358;8.780;2022-08-01T14:36:57;30.70;99.60
43047;DHT22;28672;49.358;8.780;2022-08-01T14:39:23;30.70;99.40
43047;DHT22;28672;49.358;8.780;2022-08-01T14:41:48;30.60;99.20
43047;DHT22;28672;49.358;8.780;2022-08-01T14:44:14;30.30;99.30
43047;DHT22;28672;49.358;8.780;2022-08-01T14:46:39;30.50;99.70
43047;DHT22;28672;49.358;8.780;2022-08-01T14:49:06;30.70;99.00
43047;DHT22;28672;49.358;8.780;2022-08-01T14:51:32;30.70;99.40
43047;DHT22;28672;49.358;8.780;2022-08-01T14:53:59;30.20;99.30
43047;DHT22;28672;49.358;8.780;2022-08-01T14:56:25;30.40;99.70
43047;DHT22;28672;49.358;8.780;2022-08-01T14:58:50;30.30;99.70
43047;DHT22;28672;49.358;8.780;2022-08-01T15:01:16;30.10;99.90
43047;DHT22;28672;49.358;8.780;2022-08-01T15:03:43;30.00;99.90
43047;DHT22;28672;49.358;8.780;2022-08-01T15:06:08;29.90;99.80
43047;DHT22;28672;49.358;8.780;2022-08-01T15:08:36;29.80;99.60
43047;DHT22;28672;49.358;8.780;2022-08-01T15:11:02;29.90;99.70
43047;DHT22;28672;49.358;8.780;2022-08-01T15:13:27;30.00;99.50
43047;DHT22;28672;49.358;8.780;2022-08-01T15:15:53;30.00;99.30
43047;DHT22;28672;49.358;8.780;2022-08-01T15:18:18;29.90;99.30
43047;DHT22;28672;49.358;8.780;2022-08-01T15:20:44;29.90;99.80
43047;DHT22;28672;49.358;8.780;2022-08-01T15:23:10;29.90;99.40
43047;DHT22;28672;49.358;8.780;2022-08-01T15:25:36;29.80;99.10
43047;DHT22;28672;49.358;8.780;2022-08-01T15:28:01;29.80;99.20
43047;DHT22;28672;49.358;8.780;2022-08-01T15:30:28;29.80;99.10
43047;DHT22;28672;49.358;8.780;2022-08-01T15:32:53;29.60;99.70
43047;DHT22;28672;49.358;8.780;2022-08-01T15:35:19;29.70;99.70
43047;DHT22;28672;49.358;8.780;2022-08-01T15:37:44;29.70;99.40
43047;DHT22;28672;49.358;8.780;2022-08-01T15:40:10;29.70;99.50
43047;DHT22;28672;49.358;8.780;2022-08-01T15:42:37;29.60;99.70
43047;DHT22;28672;49.358;8.780;2022-08-01T15:45:02;29.70;99.50
43047;DHT22;28672;49.358;8.780;2022-08-01T15:47:29;29.60;99.80
43047;DHT22;28672;49.358;8.780;2022-08-01T15:49:55;29.50;99.70
43047;DHT22;28672;49.358;8.780;2022-08-01T15:52:24;29.50;99.80
43047;DHT22;28672;49.358;8.780;2022-08-01T15:54:50;29.50;99.90
43047;DHT22;28672;49.358;8.780;2022-08-01T15:57:16;29.40;99.70
43047;DHT22;28672;49.358;8.780;2022-08-01T15:59:41;29.40;99.90